createdAt,value
2018-04-15T00:01:07.538Z,8.50
2018-04-15T00:03:35.374Z,8.40
2018-04-15T00:06:03.256Z,8.40
2018-04-15T00:08:31.135Z,8.40
2018-04-15T00:10:59.059Z,8.30
2018-04-15T00:13:27.095Z,8.40
2018-04-15T00:15:55.007Z,8.20
2018-04-15T00:18:22.935Z,8.20
2018-04-15T00:20:50.849Z,8.10
2018-04-15T00:23:18.714Z,8.10
2018-04-15T00:25:46.635Z,8.10
2018-04-15T00:28:14.512Z,8.10
2018-04-15T00:30:42.436Z,8.10
2018-04-15T00:33:10.259Z,8.10
2018-04-15T00:35:38.190Z,8.20
2018-04-15T00:38:06.072Z,8.20
2018-04-15T00:40:33.996Z,8.20
2018-04-15T00:43:01.927Z,8.20
2018-04-15T00:45:30.558Z,8.00
2018-04-15T00:47:58.425Z,8.00
2018-04-15T00:50:26.414Z,8.00
2018-04-15T00:52:54.239Z,8.00
2018-04-15T00:55:22.087Z,8.00
2018-04-15T00:57:50.079Z,8.00
2018-04-15T01:00:17.961Z,8.00
2018-04-15T01:02:46.035Z,8.10
2018-04-15T01:05:13.912Z,8.10
2018-04-15T01:07:41.802Z,8.10
2018-04-15T01:10:09.676Z,8.10
2018-04-15T01:12:37.545Z,8.00
2018-04-15T01:15:05.387Z,8.00
2018-04-15T01:17:33.185Z,7.90
2018-04-15T01:20:01.875Z,7.90
2018-04-15T01:22:30.500Z,8.00
2018-04-15T01:24:58.306Z,8.00
2018-04-15T01:27:26.322Z,7.90
2018-04-15T01:29:54.214Z,7.90
2018-04-15T01:32:22.166Z,7.90
2018-04-15T01:34:50.096Z,7.90
2018-04-15T01:37:18.771Z,7.70
2018-04-15T01:39:47.451Z,7.60
2018-04-15T01:42:15.391Z,7.60
2018-04-15T01:44:43.213Z,7.70
2018-04-15T01:47:11.837Z,7.80
2018-04-15T01:49:39.726Z,7.80
2018-04-15T01:52:07.646Z,7.60
2018-04-15T01:54:35.573Z,7.50
2018-04-15T01:57:08.866Z,7.40
2018-04-15T01:59:37.548Z,7.40
2018-04-15T02:02:05.407Z,7.40
2018-04-15T02:04:33.288Z,7.30
2018-04-15T02:07:01.147Z,7.30
2018-04-15T02:09:28.972Z,7.30
2018-04-15T02:11:56.981Z,7.30
2018-04-15T02:14:24.864Z,7.30
2018-04-15T02:16:53.478Z,7.30
2018-04-15T02:19:21.472Z,7.30
2018-04-15T02:21:49.332Z,7.30
2018-04-15T02:24:17.203Z,7.30
2018-04-15T02:26:45.138Z,7.30
2018-04-15T02:29:13.751Z,7.40
2018-04-15T02:31:41.651Z,7.40
2018-04-15T02:34:09.662Z,7.40
2018-04-15T02:36:39.298Z,7.30
2018-04-15T02:39:07.214Z,7.30
2018-04-15T02:41:36.084Z,7.30
2018-04-15T02:44:03.891Z,7.30
2018-04-15T02:46:32.543Z,7.30
2018-04-15T02:49:00.454Z,7.30
2018-04-15T02:51:28.339Z,7.40
2018-04-15T02:53:56.207Z,7.40
2018-04-15T02:56:24.822Z,7.40
2018-04-15T02:58:52.698Z,7.40
2018-04-15T03:01:20.562Z,7.40
2018-04-15T03:03:49.161Z,7.30
2018-04-15T03:06:17.803Z,7.30
2018-04-15T03:08:45.645Z,7.20
2018-04-15T03:11:13.613Z,7.20
2018-04-15T03:13:41.501Z,7.20
2018-04-15T03:16:09.328Z,7.20
2018-04-15T03:18:38.188Z,7.20
2018-04-15T03:21:06.065Z,7.10
2018-04-15T03:23:33.957Z,7.10
2018-04-15T03:26:02.605Z,7.10
2018-04-15T03:28:30.412Z,7.10
2018-04-15T03:30:59.044Z,7.00
2018-04-15T03:33:26.956Z,7.00
2018-04-15T03:35:55.520Z,7.10
2018-04-15T03:38:23.396Z,7.00
2018-04-15T03:40:51.287Z,7.00
2018-04-15T03:43:19.936Z,7.00
2018-04-15T03:45:47.850Z,7.00
2018-04-15T03:48:15.714Z,7.10
2018-04-15T03:50:43.657Z,7.10
2018-04-15T03:53:12.258Z,7.10
2018-04-15T03:55:40.973Z,7.10
2018-04-15T03:58:08.842Z,7.10
2018-04-15T04:00:36.748Z,7.10
2018-04-15T04:03:04.659Z,7.10
2018-04-15T04:05:32.545Z,7.10
2018-04-15T04:08:00.447Z,7.10
2018-04-15T04:10:28.688Z,7.10
2018-04-15T04:12:56.707Z,7.10
2018-04-15T04:15:24.719Z,7.20
2018-04-15T04:18:04.585Z,7.20
2018-04-15T04:23:48.391Z,7.30
2018-04-15T04:26:17.072Z,7.20
2018-04-15T04:28:45.002Z,7.20
2018-04-15T04:31:12.927Z,7.10
2018-04-15T04:33:41.743Z,7.10
2018-04-15T04:36:09.648Z,7.10
2018-04-15T04:38:37.646Z,7.10
2018-04-15T04:41:06.383Z,7.10
2018-04-15T04:43:35.403Z,7.10
2018-04-15T04:46:03.375Z,7.10
2018-04-15T04:48:31.276Z,7.10
2018-04-15T04:50:59.300Z,7.10
2018-04-15T04:53:27.234Z,7.20
2018-04-15T04:55:55.163Z,7.20
2018-04-15T04:58:23.179Z,7.20
2018-04-15T05:00:51.086Z,7.30
2018-04-15T05:03:19.046Z,7.30
2018-04-15T05:05:46.983Z,7.30
2018-04-15T05:08:14.882Z,7.30
2018-04-15T05:10:42.868Z,7.30
2018-04-15T05:13:10.823Z,7.40
2018-04-15T05:15:38.787Z,7.40
2018-04-15T05:18:06.770Z,7.40
2018-04-15T05:20:34.638Z,7.40
2018-04-15T05:23:03.147Z,7.40
2018-04-15T05:25:31.841Z,7.40
2018-04-15T05:27:59.812Z,7.40
2018-04-15T05:30:28.058Z,7.40
2018-04-15T05:32:55.952Z,7.40
2018-04-15T05:35:24.637Z,7.50
2018-04-15T05:37:53.415Z,7.50
2018-04-15T05:40:22.145Z,7.60
2018-04-15T05:42:50.084Z,7.50
2018-04-15T05:45:18.046Z,7.60
2018-04-15T05:47:46.747Z,7.90
2018-04-15T05:50:14.676Z,7.90
2018-04-15T05:52:42.691Z,7.80
2018-04-15T05:55:10.626Z,7.80
2018-04-15T05:57:39.285Z,7.90
2018-04-15T06:00:07.217Z,7.90
2018-04-15T06:02:35.181Z,8.00
2018-04-15T06:05:03.084Z,8.10
2018-04-15T06:07:31.105Z,8.30
2018-04-15T06:09:59.704Z,8.60
2018-04-15T06:12:27.684Z,8.70
2018-04-15T06:14:55.756Z,8.80
2018-04-15T06:17:24.447Z,8.80
2018-04-15T06:19:52.318Z,8.80
2018-04-15T06:22:20.280Z,8.70
2018-04-15T06:24:48.240Z,8.70
2018-04-15T06:27:16.110Z,8.80
2018-04-15T06:29:44.121Z,8.80
2018-04-15T06:32:12.080Z,8.80
2018-04-15T06:34:39.958Z,8.90
2018-04-15T06:37:08.745Z,9.00
2018-04-15T06:39:36.696Z,9.00
2018-04-15T06:42:04.574Z,9.10
2018-04-15T06:44:33.471Z,9.10
2018-04-15T06:47:01.597Z,9.10
2018-04-15T06:49:29.458Z,9.30
2018-04-15T06:51:57.524Z,9.40
2018-04-15T06:54:25.516Z,9.50
2018-04-15T06:56:53.320Z,9.50
2018-04-15T06:59:21.248Z,9.40
2018-04-15T07:01:49.155Z,9.70
2018-04-15T07:04:16.991Z,9.60
2018-04-15T07:06:44.983Z,9.60
2018-04-15T07:09:12.976Z,9.50
2018-04-15T07:11:40.914Z,9.70
2018-04-15T07:14:08.996Z,9.90
2018-04-15T07:16:36.944Z,10.00
2018-04-15T07:19:04.806Z,10.00
2018-04-15T07:21:32.698Z,10.00
2018-04-15T07:24:00.561Z,10.00
2018-04-15T07:26:28.627Z,10.10
2018-04-15T07:28:56.601Z,10.10
2018-04-15T07:31:24.679Z,10.20
2018-04-15T07:33:52.686Z,10.80
2018-04-15T07:36:20.720Z,11.00
2018-04-15T07:38:49.841Z,11.80
2018-04-15T07:41:18.723Z,12.00
2018-04-15T07:43:46.768Z,12.00
2018-04-15T07:46:14.683Z,12.20
2018-04-15T07:48:43.373Z,12.10
2018-04-15T07:51:12.088Z,12.30
2018-04-15T07:53:40.020Z,12.30
2018-04-15T07:56:08.769Z,12.30
2018-04-15T07:58:37.411Z,12.30
2018-04-15T08:01:05.304Z,12.30
2018-04-15T08:03:33.125Z,12.40
2018-04-15T08:06:01.817Z,12.90
2018-04-15T08:08:30.433Z,12.80
2018-04-15T08:10:58.352Z,12.80
2018-04-15T08:13:26.564Z,12.80
2018-04-15T08:15:54.531Z,12.80
2018-04-15T08:18:22.527Z,12.80
2018-04-15T08:20:50.436Z,12.80
2018-04-15T08:23:18.398Z,12.80
2018-04-15T08:25:47.195Z,12.80
2018-04-15T08:28:15.893Z,12.90
2018-04-15T08:30:44.819Z,12.80
2018-04-15T08:33:12.646Z,12.80
2018-04-15T08:35:41.556Z,13.20
2018-04-15T08:38:09.471Z,13.20
2018-04-15T08:40:37.394Z,13.50
2018-04-15T08:43:05.366Z,13.40
2018-04-15T08:45:33.288Z,13.40
2018-04-15T08:48:02.082Z,13.20
2018-04-15T08:50:30.323Z,13.10
2018-04-15T08:52:58.185Z,13.00
2018-04-15T08:55:26.408Z,13.00
2018-04-15T08:57:54.428Z,13.00
2018-04-15T09:00:22.409Z,13.00
2018-04-15T09:02:50.362Z,13.00
2018-04-15T09:05:18.321Z,13.30
2018-04-15T09:07:48.114Z,14.00
2018-04-15T09:10:16.770Z,14.20
2018-04-15T09:12:44.691Z,14.20
2018-04-15T09:15:12.561Z,14.30
2018-04-15T09:17:40.462Z,14.30
2018-04-15T09:20:08.464Z,14.50
2018-04-15T09:22:37.100Z,15.10
2018-04-15T09:25:05.061Z,15.10
2018-04-15T09:27:33.081Z,15.40
2018-04-15T09:30:01.723Z,16.00
2018-04-15T09:32:29.554Z,16.00
2018-04-15T09:34:58.323Z,16.10
2018-04-15T09:37:26.228Z,16.10
2018-04-15T09:39:54.181Z,16.40
2018-04-15T09:42:22.131Z,16.50
2018-04-15T09:44:50.928Z,16.80
2018-04-15T09:47:19.550Z,16.80
2018-04-15T09:49:47.589Z,16.70
2018-04-15T09:52:16.346Z,17.10
2018-04-15T09:54:44.271Z,17.10
2018-04-15T09:57:12.599Z,17.20
2018-04-15T09:59:41.291Z,17.70
2018-04-15T10:02:10.033Z,17.80
2018-04-15T10:04:37.930Z,17.70
2018-04-15T10:07:05.890Z,18.10
2018-04-15T10:09:38.289Z,18.20
2018-04-15T10:12:06.961Z,18.90
2018-04-15T10:14:35.799Z,18.90
2018-04-15T10:17:04.590Z,19.50
2018-04-15T10:19:32.534Z,19.50
2018-04-15T10:22:01.198Z,20.10
2018-04-15T10:24:29.029Z,20.00
2018-04-15T10:26:57.141Z,20.30
2018-04-15T10:29:25.844Z,20.80
2018-04-15T10:31:54.486Z,21.00
2018-04-15T10:34:22.483Z,21.00
2018-04-15T10:36:50.342Z,21.20
2018-04-15T10:39:18.216Z,21.20
2018-04-15T10:41:46.181Z,21.20
2018-04-15T10:44:14.031Z,21.60
2018-04-15T10:46:42.063Z,21.80
2018-04-15T10:49:10.048Z,22.20
2018-04-15T10:51:38.105Z,22.30
2018-04-15T10:54:06.028Z,22.60
2018-04-15T10:56:34.019Z,22.90
2018-04-15T10:59:02.658Z,23.20
2018-04-15T11:01:30.478Z,23.20
2018-04-15T11:03:59.185Z,23.50
2018-04-15T11:06:27.098Z,23.40
2018-04-15T11:08:54.897Z,23.70
2018-04-15T11:11:22.804Z,23.80
2018-04-15T11:13:50.643Z,23.70
2018-04-15T11:16:18.473Z,23.50
2018-04-15T11:18:48.054Z,24.10
2018-04-15T11:21:15.960Z,24.10
2018-04-15T11:23:44.658Z,24.40
2018-04-15T11:26:13.482Z,24.60
2018-04-15T11:28:41.339Z,24.60
2018-04-15T11:31:09.208Z,24.80
2018-04-15T11:33:37.418Z,25.10
2018-04-15T11:36:05.372Z,25.30
2018-04-15T11:38:33.263Z,25.60
2018-04-15T11:41:01.352Z,25.50
2018-04-15T11:43:30.043Z,25.10
2018-04-15T11:45:58.755Z,24.90
2018-04-15T11:48:26.820Z,24.90
2018-04-15T11:50:54.729Z,24.60
2018-04-15T11:53:22.590Z,24.30
2018-04-15T11:55:50.849Z,24.10
2018-04-15T11:58:18.821Z,23.90
2018-04-15T12:00:46.704Z,23.70
2018-04-15T12:03:14.656Z,23.50
2018-04-15T12:05:42.525Z,23.10
2018-04-15T12:08:10.874Z,22.70
2018-04-15T12:10:38.900Z,22.40
2018-04-15T12:13:06.809Z,22.00
2018-04-15T12:15:35.514Z,21.50
2018-04-15T12:18:03.453Z,21.50
2018-04-15T12:20:32.042Z,21.10
2018-04-15T12:23:00.626Z,21.00
2018-04-15T12:25:29.345Z,20.90
2018-04-15T12:27:57.316Z,20.90
2018-04-15T12:30:25.291Z,20.80
2018-04-15T12:32:53.203Z,20.70
2018-04-15T12:35:21.117Z,20.50
2018-04-15T12:37:50.918Z,20.40
2018-04-15T12:40:18.909Z,20.30
2018-04-15T12:42:46.895Z,20.30
2018-04-15T12:45:14.856Z,20.20
2018-04-15T12:47:42.841Z,20.20
2018-04-15T12:50:10.853Z,20.10
2018-04-15T12:52:39.485Z,20.00
2018-04-15T12:55:07.522Z,19.90
2018-04-15T12:57:35.450Z,19.90
2018-04-15T13:00:03.320Z,19.80
2018-04-15T13:02:31.280Z,19.80
2018-04-15T13:04:59.200Z,19.80
2018-04-15T13:07:27.043Z,20.00
2018-04-15T13:09:55.838Z,20.20
2018-04-15T13:12:24.502Z,20.30
2018-04-15T13:14:52.324Z,20.30
2018-04-15T13:17:20.308Z,20.50
2018-04-15T13:19:48.278Z,20.70
2018-04-15T13:22:16.213Z,20.80
2018-04-15T13:24:44.211Z,20.80
2018-04-15T13:27:12.164Z,20.90
2018-04-15T13:29:40.008Z,20.90
2018-04-15T13:32:07.892Z,21.00
2018-04-15T13:34:36.069Z,21.10
2018-04-15T13:37:03.984Z,21.20
2018-04-15T13:39:32.767Z,21.60
2018-04-15T13:42:00.629Z,21.60
2018-04-15T13:44:28.461Z,21.90
2018-04-15T13:46:56.573Z,21.80
2018-04-15T13:49:24.468Z,21.80
2018-04-15T13:51:53.258Z,21.60
2018-04-15T13:54:21.984Z,21.60
2018-04-15T13:56:50.015Z,21.60
2018-04-15T13:59:18.670Z,21.50
2018-04-15T14:01:46.666Z,21.50
2018-04-15T14:04:15.325Z,21.40
2018-04-15T14:06:43.310Z,21.40
2018-04-15T14:09:11.974Z,21.20
2018-04-15T14:11:40.004Z,21.20
2018-04-15T14:14:08.105Z,21.10
2018-04-15T14:16:36.014Z,21.10
2018-04-15T14:19:04.785Z,21.00
2018-04-15T14:21:32.752Z,21.00
2018-04-15T14:24:00.687Z,21.00
2018-04-15T14:26:29.167Z,21.00
2018-04-15T14:28:57.096Z,21.00
2018-04-15T14:31:25.849Z,20.90
2018-04-15T14:33:53.831Z,20.90
2018-04-15T14:36:21.657Z,20.90
2018-04-15T14:38:49.655Z,20.80
2018-04-15T14:41:17.712Z,20.80
2018-04-15T14:43:45.786Z,20.70
2018-04-15T14:46:13.800Z,20.70
2018-04-15T14:48:42.420Z,20.60
2018-04-15T14:51:10.448Z,20.60
2018-04-15T14:53:38.488Z,20.60
2018-04-15T14:56:06.375Z,20.60
2018-04-15T14:58:34.400Z,20.50
2018-04-15T15:01:02.328Z,20.50
2018-04-15T15:03:31.077Z,20.50
2018-04-15T15:05:58.955Z,20.50
2018-04-15T15:08:27.232Z,20.50
2018-04-15T15:10:56.205Z,20.40
2018-04-15T15:13:24.749Z,20.30
2018-04-15T15:15:52.840Z,20.40
2018-04-15T15:18:23.149Z,20.30
2018-04-15T15:20:51.134Z,20.20
2018-04-15T15:23:19.063Z,20.20
2018-04-15T15:25:47.817Z,20.00
2018-04-15T15:28:15.708Z,20.00
2018-04-15T15:30:43.868Z,19.90
2018-04-15T15:33:12.618Z,19.80
2018-04-15T15:35:40.576Z,19.70
2018-04-15T15:38:08.657Z,19.70
2018-04-15T15:40:36.584Z,19.60
2018-04-15T15:43:05.215Z,19.40
2018-04-15T15:45:33.143Z,19.40
2018-04-15T15:48:01.805Z,19.30
2018-04-15T15:50:29.884Z,19.20
2018-04-15T15:52:58.015Z,19.10
2018-04-15T15:55:25.983Z,19.00
2018-04-15T15:57:53.955Z,19.00
2018-04-15T16:00:21.982Z,19.00
2018-04-15T16:02:51.115Z,18.90
2018-04-15T16:05:19.030Z,18.90
2018-04-15T16:07:47.062Z,18.80
2018-04-15T16:10:15.016Z,18.60
2018-04-15T16:12:42.879Z,18.60
2018-04-15T16:15:10.858Z,18.50
2018-04-15T16:17:38.750Z,18.30
2018-04-15T16:20:06.617Z,18.20
2018-04-15T16:22:34.641Z,18.10
2018-04-15T16:25:03.267Z,17.80
2018-04-15T16:27:31.227Z,17.80
2018-04-15T16:29:59.231Z,17.80
2018-04-15T16:32:27.135Z,17.60
2018-04-15T16:34:55.963Z,17.40
2018-04-15T16:37:24.018Z,17.40
2018-04-15T16:39:51.968Z,17.30
2018-04-15T16:42:20.768Z,17.20
2018-04-15T16:44:48.774Z,17.20
2018-04-15T16:47:16.778Z,17.10
2018-04-15T16:49:45.577Z,17.10
2018-04-15T16:52:14.329Z,17.10
2018-04-15T16:54:42.267Z,17.00
2018-04-15T16:57:10.305Z,17.00
2018-04-15T16:59:39.061Z,16.70
2018-04-15T17:02:06.997Z,16.70
2018-04-15T17:04:34.866Z,16.50
2018-04-15T17:07:02.926Z,16.30
2018-04-15T17:09:30.799Z,16.40
2018-04-15T17:11:58.740Z,16.30
2018-04-15T17:14:27.537Z,16.30
2018-04-15T17:16:55.430Z,16.30
2018-04-15T17:19:23.450Z,16.20
2018-04-15T17:21:52.262Z,16.20
2018-04-15T17:24:20.190Z,16.20
2018-04-15T17:26:48.232Z,16.20
2018-04-15T17:29:17.074Z,16.10
2018-04-15T17:31:45.126Z,16.10
2018-04-15T17:34:13.020Z,16.10
2018-04-15T17:36:41.725Z,15.90
2018-04-15T17:39:09.661Z,15.90
2018-04-15T17:41:37.695Z,15.90
2018-04-15T17:44:05.653Z,15.80
2018-04-15T17:46:33.669Z,15.80
2018-04-15T17:49:02.357Z,15.60
2018-04-15T17:51:31.128Z,15.60
2018-04-15T17:53:59.006Z,15.50
2018-04-15T17:56:27.837Z,15.40
2018-04-15T17:58:55.951Z,15.40
2018-04-15T18:01:23.850Z,15.30
2018-04-15T18:03:52.516Z,15.00
2018-04-15T18:06:20.575Z,15.00
2018-04-15T18:08:48.455Z,15.00
2018-04-15T18:11:16.301Z,14.90
2018-04-15T18:13:44.351Z,14.90
2018-04-15T18:16:12.286Z,14.90
2018-04-15T18:18:40.166Z,14.70
2018-04-15T18:21:08.450Z,14.70
2018-04-15T18:23:36.296Z,14.70
2018-04-15T18:26:05.238Z,14.70
2018-04-15T18:28:33.319Z,14.80
2018-04-15T18:31:01.265Z,14.80
2018-04-15T18:33:29.177Z,14.80
2018-04-15T18:35:57.225Z,14.80
2018-04-15T18:38:25.122Z,14.70
2018-04-15T18:40:53.773Z,14.70
2018-04-15T18:43:21.713Z,14.60
2018-04-15T18:45:49.711Z,14.70
2018-04-15T18:48:17.547Z,14.60
2018-04-15T18:50:45.609Z,14.70
2018-04-15T18:53:13.451Z,14.70
2018-04-15T18:55:42.151Z,14.50
2018-04-15T18:58:10.152Z,14.50
2018-04-15T19:00:38.229Z,14.40
2018-04-15T19:03:06.252Z,14.40
2018-04-15T19:05:34.970Z,14.40
2018-04-15T19:08:02.901Z,14.40
2018-04-15T19:10:30.941Z,14.40
2018-04-15T19:12:59.006Z,14.40
2018-04-15T19:15:27.005Z,14.30
2018-04-15T19:17:55.144Z,14.30
2018-04-15T19:20:23.062Z,14.20
2018-04-15T19:22:51.754Z,14.20
2018-04-15T19:25:20.479Z,14.10
2018-04-15T19:27:48.441Z,14.10
2018-04-15T19:30:16.437Z,14.10
2018-04-15T19:32:44.504Z,14.00
2018-04-15T19:35:13.400Z,14.10
2018-04-15T19:37:41.763Z,14.10
2018-04-15T19:40:10.051Z,14.10
2018-04-15T19:42:38.101Z,14.10
2018-04-15T19:45:05.944Z,14.10
2018-04-15T19:47:34.624Z,14.10
2018-04-15T19:50:03.306Z,14.10
2018-04-15T19:52:31.987Z,14.10
2018-04-15T19:55:01.097Z,14.10
2018-04-15T19:57:29.850Z,14.00
2018-04-15T19:59:57.895Z,14.00
2018-04-15T20:02:25.956Z,14.00
2018-04-15T20:04:53.949Z,13.90
2018-04-15T20:07:21.994Z,13.90
2018-04-15T20:09:49.936Z,13.90
2018-04-15T20:12:18.611Z,13.90
2018-04-15T20:14:47.261Z,13.90
2018-04-15T20:17:15.194Z,14.00
2018-04-15T20:19:43.183Z,13.90
2018-04-15T20:22:11.142Z,14.00
2018-04-15T20:24:39.078Z,14.00
2018-04-15T20:27:07.996Z,13.80
2018-04-15T20:29:35.981Z,13.80
2018-04-15T20:32:03.896Z,13.70
2018-04-15T20:34:32.754Z,13.60
2018-04-15T20:37:00.730Z,13.60
2018-04-15T20:39:28.595Z,13.60
2018-04-15T20:41:56.671Z,13.60
2018-04-15T20:44:24.624Z,13.60
2018-04-15T20:46:52.852Z,13.60
2018-04-15T20:49:21.617Z,13.60
2018-04-15T20:51:49.507Z,13.60
2018-04-15T20:54:18.205Z,13.50
2018-04-15T20:56:46.192Z,13.50
2018-04-15T20:59:14.181Z,13.40
2018-04-15T21:01:42.049Z,13.30
2018-04-15T21:04:10.035Z,13.20
2018-04-15T21:06:38.855Z,13.20
2018-04-15T21:09:06.781Z,13.10
2018-04-15T21:11:34.802Z,13.20
2018-04-15T21:14:02.648Z,13.10
2018-04-15T21:16:31.287Z,13.10
2018-04-15T21:18:59.266Z,13.00
2018-04-15T21:21:27.152Z,13.10
2018-04-15T21:23:55.062Z,13.10
2018-04-15T21:26:23.157Z,13.10
2018-04-15T21:28:51.073Z,13.10
2018-04-15T21:31:18.967Z,13.10
2018-04-15T21:33:47.742Z,13.00
2018-04-15T21:36:16.401Z,13.00
2018-04-15T21:38:44.483Z,13.00
2018-04-15T21:41:12.464Z,13.00
2018-04-15T21:43:41.147Z,13.10
2018-04-15T21:46:09.936Z,13.10
2018-04-15T21:48:38.733Z,13.10
2018-04-15T21:51:07.379Z,13.10
2018-04-15T21:53:35.310Z,13.10
2018-04-15T21:56:03.298Z,13.10
2018-04-15T21:58:31.252Z,13.10
2018-04-15T22:00:59.130Z,13.10
2018-04-15T22:03:27.109Z,13.10
2018-04-15T22:05:55.058Z,13.10
2018-04-15T22:08:22.973Z,13.10
2018-04-15T22:10:50.981Z,13.10
2018-04-15T22:13:19.819Z,13.00
2018-04-15T22:15:47.712Z,13.00
2018-04-15T22:18:15.716Z,13.00
2018-04-15T22:20:43.592Z,13.10
2018-04-15T22:23:11.494Z,13.00
2018-04-15T22:25:39.413Z,13.00
2018-04-15T22:28:07.326Z,13.10
2018-04-15T22:30:35.501Z,13.10
2018-04-15T22:33:03.481Z,13.00
2018-04-15T22:35:31.493Z,13.00
2018-04-15T22:38:00.143Z,13.00
2018-04-15T22:40:28.740Z,13.00
2018-04-15T22:42:56.661Z,13.10
2018-04-15T22:45:24.653Z,13.10
2018-04-15T22:47:59.158Z,13.10
2018-04-15T22:50:32.808Z,13.10
2018-04-15T22:53:01.576Z,13.10
2018-04-15T22:55:29.523Z,13.00
2018-04-15T22:57:57.385Z,13.00
2018-04-15T23:00:25.389Z,13.10
2018-04-15T23:02:53.307Z,13.10
2018-04-15T23:05:21.240Z,13.00
2018-04-15T23:07:49.982Z,13.10
2018-04-15T23:10:17.975Z,13.10
2018-04-15T23:12:45.868Z,13.10
2018-04-15T23:15:14.789Z,13.00
2018-04-15T23:17:42.770Z,13.00
2018-04-15T23:20:10.767Z,12.90
2018-04-15T23:22:38.844Z,12.90
2018-04-15T23:25:06.769Z,12.80
2018-04-15T23:27:34.756Z,12.80
2018-04-15T23:30:02.708Z,12.80
2018-04-15T23:32:30.677Z,12.80
2018-04-15T23:34:58.597Z,12.70
2018-04-15T23:37:26.518Z,12.70
2018-04-15T23:39:54.509Z,12.70
2018-04-15T23:42:22.429Z,12.70
2018-04-15T23:44:51.136Z,12.60
2018-04-15T23:47:19.130Z,12.60
2018-04-15T23:49:47.031Z,12.60
2018-04-15T23:52:14.928Z,12.60
2018-04-15T23:54:42.876Z,12.60
2018-04-15T23:57:11.594Z,12.60
2018-04-15T23:59:39.591Z,12.60
